Time;durP1;ratioP1;P1;durP2;ratioP2;P2;SDS_P1;SDS_P2;PMS_P1;PMS_P2;Temp;Humidity;BMP_temperature;BMP_pressure;BME280_temperature;BME280_humidity;BME280_pressure;Samples;Min_cycle;Max_cycle;Signal;HPM_P1;HPM_P2
2024/01/20 00:01:27;;;;;;;18.50;9.70;;;;;;;-0.67;82.56;101459.79;107046;1257;108114;-66
2024/01/20 00:03:55;;;;;;;18.80;9.90;;;;;;;-0.68;82.47;101460.89;107179;1256;99215;-65
2024/01/20 00:06:24;;;;;;;20.70;10.60;;;;;;;-0.66;82.30;101468.21;107169;1256;99175;-65
2024/01/20 00:08:52;;;;;;;17.90;10.90;;;;;;;-0.64;82.52;101478.20;107243;1257;111838;-66
2024/01/20 00:11:22;;;;;;;16.80;9.80;;;;;;;-0.62;82.36;101484.86;107312;1257;108262;-66
2024/01/20 00:13:50;;;;;;;39.40;19.30;;;;;;;-0.60;82.47;101492.20;107328;1257;107299;-65
2024/01/20 00:16:19;;;;;;;28.70;15.60;;;;;;;-0.56;82.50;101483.27;107254;1257;99295;-66
2024/01/20 00:18:47;;;;;;;34.70;17.90;;;;;;;-0.51;82.60;101478.52;107304;1257;99087;-66
2024/01/20 00:21:16;;;;;;;25.10;12.60;;;;;;;-0.46;82.39;101476.63;107264;1257;112793;-66
2024/01/20 00:23:44;;;;;;;23.60;11.20;;;;;;;-0.47;82.10;101471.00;107316;1259;108599;-65
2024/01/20 00:26:14;;;;;;;19.70;10.50;;;;;;;-0.50;81.89;101471.29;107036;1256;107160;-65
2024/01/20 00:28:43;;;;;;;21.90;11.20;;;;;;;-0.50;82.10;101482.55;107283;1256;99205;-65
2024/01/20 00:31:13;;;;;;;20.30;10.80;;;;;;;-0.50;82.05;101483.10;107266;1257;99092;-65
2024/01/20 00:33:41;;;;;;;24.40;13.10;;;;;;;-0.51;81.97;101485.06;107300;1257;111737;-63
2024/01/20 00:36:10;;;;;;;23.50;10.60;;;;;;;-0.53;81.87;101472.96;107276;1259;109010;-65
2024/01/20 00:38:39;;;;;;;20.70;11.60;;;;;;;-0.55;81.64;101481.82;107278;1256;108110;-65
2024/01/20 00:41:10;;;;;;;19.80;11.60;;;;;;;-0.56;81.61;101486.60;107273;1257;99189;-65
2024/01/20 00:43:38;;;;;;;22.10;11.30;;;;;;;-0.58;81.45;101483.33;107307;1256;99738;-65
2024/01/20 00:46:07;;;;;;;23.00;12.20;;;;;;;-0.61;81.30;101486.76;107293;1256;113274;-65
2024/01/20 00:48:35;;;;;;;22.10;11.90;;;;;;;-0.65;81.52;101493.23;107302;1257;108540;-66
2024/01/20 00:51:03;;;;;;;22.20;12.90;;;;;;;-0.67;81.46;101498.94;107297;1256;107371;-65
2024/01/20 00:53:31;;;;;;;22.10;11.90;;;;;;;-0.70;81.14;101500.77;107281;1257;99242;-64
2024/01/20 00:56:00;;;;;;;22.40;12.40;;;;;;;-0.74;81.35;101512.88;107313;1256;99249;-65
2024/01/20 00:58:29;;;;;;;20.60;12.00;;;;;;;-0.80;81.05;101520.80;107336;1256;113080;-66
2024/01/20 01:00:58;;;;;;;25.80;12.60;;;;;;;-0.85;80.89;101510.71;107304;1256;108508;-65
2024/01/20 01:03:26;;;;;;;20.20;12.00;;;;;;;-0.88;80.96;101511.52;107153;1256;107757;-66
2024/01/20 01:05:54;;;;;;;21.90;12.20;;;;;;;-0.90;80.93;101507.19;107124;1257;99282;-65
2024/01/20 01:08:23;;;;;;;23.70;11.90;;;;;;;-0.90;81.14;101506.11;107250;1257;99275;-66
2024/01/20 01:10:55;;;;;;;27.60;13.90;;;;;;;-0.89;81.06;101517.70;107107;1257;112835;-65
2024/01/20 01:13:23;;;;;;;23.90;12.30;;;;;;;-0.88;81.03;101526.48;107387;1257;107774;-65
2024/01/20 01:15:52;;;;;;;23.50;12.00;;;;;;;-0.89;80.81;101519.11;107270;1256;108781;-64
2024/01/20 01:18:21;;;;;;;31.70;14.40;;;;;;;-0.89;80.94;101521.77;107253;1256;99194;-65
2024/01/20 01:20:50;;;;;;;26.80;12.80;;;;;;;-0.87;80.94;101521.90;107302;1257;99572;-65
2024/01/20 01:23:18;;;;;;;21.30;12.50;;;;;;;-0.86;80.96;101519.71;107292;1256;113313;-65
2024/01/20 01:25:47;;;;;;;20.20;11.60;;;;;;;-0.82;81.00;101529.13;107336;1257;108401;-65
2024/01/20 01:28:15;;;;;;;21.90;12.60;;;;;;;-0.81;80.97;101534.73;107279;1257;108059;-65
2024/01/20 01:30:44;;;;;;;22.30;13.50;;;;;;;-0.80;80.84;101540.51;107286;1257;99302;-65
2024/01/20 01:33:13;;;;;;;30.70;13.90;;;;;;;-0.80;80.61;101538.58;107267;1256;99051;-65
2024/01/20 01:35:41;;;;;;;30.00;15.20;;;;;;;-0.82;80.32;101541.64;107273;1255;112467;-66
2024/01/20 01:38:09;;;;;;;27.40;14.50;;;;;;;-0.85;80.03;101542.44;107215;1256;107326;-65
2024/01/20 01:40:38;;;;;;;29.70;14.80;;;;;;;-0.90;80.07;101547.16;107111;1257;107501;-65
2024/01/20 01:43:08;;;;;;;30.80;16.30;;;;;;;-0.93;80.01;101546.16;107231;1257;99192;-66
2024/01/20 01:45:36;;;;;;;33.00;15.00;;;;;;;-0.97;79.90;101549.80;107281;1256;98532;-66
2024/01/20 01:48:05;;;;;;;29.80;16.60;;;;;;;-0.99;80.04;101547.92;107278;1257;113226;-64
2024/01/20 01:50:33;;;;;;;35.70;15.00;;;;;;;-1.01;79.88;101549.91;107286;1257;107926;-65
2024/01/20 01:53:05;;;;;;;29.90;15.60;;;;;;;-1.05;79.68;101550.21;107281;1257;107789;-65
2024/01/20 01:55:34;;;;;;;28.70;16.10;;;;;;;-1.07;80.02;101548.67;107290;1257;99347;-65
2024/01/20 01:58:04;;;;;;;29.90;15.80;;;;;;;-1.09;79.96;101553.48;107279;1255;99740;-66
2024/01/20 02:00:32;;;;;;;36.60;14.90;;;;;;;-1.14;79.96;101558.21;107115;1257;113753;-65
2024/01/20 02:03:01;;;;;;;27.70;14.90;;;;;;;-1.23;80.07;101551.39;107307;1257;108399;-66
2024/01/20 02:05:30;;;;;;;29.10;14.60;;;;;;;-1.29;80.27;101548.55;107298;1256;109207;-65
2024/01/20 02:07:59;;;;;;;27.60;13.70;;;;;;;-1.32;80.35;101551.61;107265;1257;99211;-66
2024/01/20 02:10:28;;;;;;;32.10;13.90;;;;;;;-1.36;80.28;101554.37;107308;1256;99954;-65
2024/01/20 02:12:56;;;;;;;30.70;15.60;;;;;;;-1.36;80.46;101551.05;107296;1256;112889;-64
2024/01/20 02:15:27;;;;;;;29.90;15.10;;;;;;;-1.37;80.27;101560.73;107284;1259;107987;-65
2024/01/20 02:17:55;;;;;;;34.00;16.30;;;;;;;-1.38;80.17;101561.63;107290;1259;108847;-65
2024/01/20 02:20:24;;;;;;;34.80;16.80;;;;;;;-1.37;80.19;101560.55;107281;1257;99177;-65
2024/01/20 02:22:53;;;;;;;31.80;17.40;;;;;;;-1.36;80.04;101561.58;107255;1257;99845;-66
2024/01/20 02:25:21;;;;;;;33.80;15.70;;;;;;;-1.35;80.17;101558.73;107302;1259;114267;-65
2024/01/20 02:27:50;;;;;;;29.30;16.60;;;;;;;-1.34;80.08;101561.69;107312;1257;108303;-66
2024/01/20 02:30:19;;;;;;;35.40;17.00;;;;;;;-1.33;79.99;101565.02;107282;1259;108388;-66
2024/01/20 02:32:47;;;;;;;33.20;16.30;;;;;;;-1.30;80.14;101573.23;107318;1257;99352;-64
2024/01/20 02:35:18;;;;;;;35.30;17.60;;;;;;;-1.29;80.07;101568.08;107284;1256;99211;-65
2024/01/20 02:37:47;;;;;;;32.70;16.90;;;;;;;-1.28;80.09;101566.98;107289;1257;112824;-63
2024/01/20 02:40:17;;;;;;;34.90;17.40;;;;;;;-1.27;79.96;101563.10;107279;1259;108170;-65
2024/01/20 02:42:45;;;;;;;39.30;19.10;;;;;;;-1.27;79.99;101571.91;107309;1256;107867;-64
2024/01/20 02:45:13;;;;;;;38.10;19.00;;;;;;;-1.30;79.59;101576.19;107113;1257;99182;-65
2024/01/20 02:47:42;;;;;;;37.30;18.70;;;;;;;-1.31;79.73;101571.13;107163;1260;99084;-65
2024/01/20 02:50:11;;;;;;;41.00;17.80;;;;;;;-1.32;79.66;101575.38;107289;1257;112542;-65
2024/01/20 02:52:42;;;;;;;42.40;17.70;;;;;;;-1.35;79.60;101574.56;107334;1257;108415;-64
2024/01/20 02:55:10;;;;;;;40.40;17.80;;;;;;;-1.38;79.51;101582.40;107314;1256;107773;-66
2024/01/20 02:57:40;;;;;;;41.70;20.20;;;;;;;-1.39;79.70;101578.02;107279;1257;99186;-64
2024/01/20 03:00:09;;;;;;;34.60;18.30;;;;;;;-1.40;79.67;101581.73;107136;1256;99162;-64
2024/01/20 03:02:37;;;;;;;35.90;18.90;;;;;;;-1.43;79.58;101601.17;107146;1256;112250;-64
2024/01/20 03:05:06;;;;;;;36.40;18.30;;;;;;;-1.47;79.47;101601.61;107372;1257;107631;-65
2024/01/20 03:07:34;;;;;;;37.10;19.90;;;;;;;-1.47;79.72;101595.48;107299;1255;107636;-65
2024/01/20 03:10:04;;;;;;;54.60;20.50;;;;;;;-1.48;79.70;101598.30;107134;1260;99289;-65
2024/01/20 03:12:32;;;;;;;35.70;16.80;;;;;;;-1.47;79.64;101597.02;107163;1256;99169;-65
2024/01/20 03:15:01;;;;;;;34.70;17.80;;;;;;;-1.46;79.72;101605.64;107341;1257;113488;-67
2024/01/20 03:17:30;;;;;;;42.60;18.40;;;;;;;-1.46;79.68;101616.20;107381;1256;108351;-66
2024/01/20 03:19:58;;;;;;;41.80;19.40;;;;;;;-1.47;79.56;101615.15;107305;1257;108659;-65
2024/01/20 03:22:27;;;;;;;52.90;23.40;;;;;;;-1.46;79.78;101619.55;107283;1257;99091;-66
2024/01/20 03:24:55;;;;;;;41.40;20.90;;;;;;;-1.46;79.63;101623.77;107318;1255;99718;-67
2024/01/20 03:27:24;;;;;;;38.90;19.10;;;;;;;-1.47;79.41;101638.41;107271;1255;113613;-66
2024/01/20 03:29:52;;;;;;;43.50;20.70;;;;;;;-1.50;79.30;101652.20;107309;1257;108334;-63
2024/01/20 03:32:20;;;;;;;37.50;19.40;;;;;;;-1.52;79.27;101649.95;107302;1257;107791;-64
2024/01/20 03:34:49;;;;;;;39.00;20.30;;;;;;;-1.52;79.36;101655.23;107274;1257;99198;-66
2024/01/20 03:37:17;;;;;;;35.20;17.40;;;;;;;-1.52;79.37;101650.30;107326;1257;99065;-65
2024/01/20 03:39:45;;;;;;;41.20;20.20;;;;;;;-1.54;79.24;101658.80;107081;1257;112492;-65
2024/01/20 03:42:14;;;;;;;39.90;18.60;;;;;;;-1.55;79.21;101661.64;107299;1257;108315;-64
2024/01/20 03:44:42;;;;;;;40.10;19.80;;;;;;;-1.55;79.34;101668.32;107208;1257;108471;-65
2024/01/20 03:47:10;;;;;;;39.70;20.70;;;;;;;-1.59;78.86;101677.20;107009;1256;99233;-63
2024/01/20 03:49:39;;;;;;;47.40;23.10;;;;;;;-1.59;79.17;101674.59;107277;1256;99067;-64
2024/01/20 03:52:08;;;;;;;43.00;19.60;;;;;;;-1.60;78.95;101684.27;107302;1257;113353;-64
2024/01/20 03:54:36;;;;;;;41.50;19.30;;;;;;;-1.60;79.18;101691.30;107312;1258;107338;-66
2024/01/20 03:57:05;;;;;;;42.20;19.60;;;;;;;-1.58;79.21;101702.36;107310;1256;108191;-66
2024/01/20 03:59:34;;;;;;;45.50;20.40;;;;;;;-1.56;79.11;101707.05;107254;1257;99183;-65
2024/01/20 04:02:02;;;;;;;41.70;19.60;;;;;;;-1.55;78.99;101712.12;107338;1257;99185;-66
2024/01/20 04:04:31;;;;;;;39.30;18.80;;;;;;;-1.57;78.84;101714.63;107295;1256;112225;-66
2024/01/20 04:07:00;;;;;;;41.10;18.00;;;;;;;-1.59;78.82;101727.52;107314;1257;108312;-65
2024/01/20 04:09:28;;;;;;;52.40;22.30;;;;;;;-1.61;78.71;101741.45;107290;1256;107874;-65
2024/01/20 04:11:57;;;;;;;44.80;19.80;;;;;;;-1.64;78.67;101749.61;107297;1257;99192;-66
2024/01/20 04:14:25;;;;;;;46.60;21.20;;;;;;;-1.67;78.82;101752.85;107205;1256;99221;-66
2024/01/20 04:16:53;;;;;;;45.40;20.10;;;;;;;-1.68;78.82;101759.90;107165;1256;112269;-65
2024/01/20 04:19:21;;;;;;;38.90;19.70;;;;;;;-1.67;78.98;101772.02;107240;1257;108091;-65
2024/01/20 04:21:50;;;;;;;43.00;19.10;;;;;;;-1.67;79.01;101778.89;107297;1256;108378;-65
2024/01/20 04:24:18;;;;;;;36.90;16.60;;;;;;;-1.66;79.07;101784.66;107256;1257;99131;-64
2024/01/20 04:26:47;;;;;;;37.10;18.50;;;;;;;-1.64;79.15;101796.23;107321;1256;99281;-64
2024/01/20 04:29:15;;;;;;;41.10;19.80;;;;;;;-1.61;79.10;101793.71;107271;1256;112871;-64
2024/01/20 04:31:43;;;;;;;52.70;18.20;;;;;;;-1.60;79.01;101801.77;107303;1257;108455;-65
2024/01/20 04:34:11;;;;;;;38.30;19.20;;;;;;;-1.57;79.12;101807.16;107261;1256;109169;-65
2024/01/20 04:36:40;;;;;;;44.70;19.30;;;;;;;-1.55;78.89;101811.00;107290;1257;99198;-65
2024/01/20 04:39:08;;;;;;;41.70;17.90;;;;;;;-1.54;78.89;101818.02;107295;1255;99195;-65
2024/01/20 04:41:37;;;;;;;42.70;19.60;;;;;;;-1.54;78.73;101820.14;107312;1256;112757;-65
2024/01/20 04:44:06;;;;;;;41.80;18.40;;;;;;;-1.55;78.78;101823.67;107263;1259;108069;-66
2024/01/20 04:46:34;;;;;;;46.20;18.70;;;;;;;-1.57;78.86;101825.83;107171;1256;108456;-65
2024/01/20 04:49:02;;;;;;;37.30;18.40;;;;;;;-1.57;78.79;101824.77;107165;1256;99174;-66
2024/01/20 04:51:31;;;;;;;42.00;18.50;;;;;;;-1.54;78.92;101832.10;107322;1257;99775;-66
2024/01/20 04:53:59;;;;;;;35.70;15.80;;;;;;;-1.54;79.04;101836.66;107277;1257;113359;-66
2024/01/20 04:56:28;;;;;;;37.20;17.70;;;;;;;-1.53;78.97;101835.42;107333;1257;108494;-67
2024/01/20 04:58:56;;;;;;;36.30;17.50;;;;;;;-1.53;78.90;101834.19;107272;1256;107784;-65
2024/01/20 05:01:24;;;;;;;39.00;17.20;;;;;;;-1.55;78.91;101831.22;107251;1256;99823;-65
2024/01/20 05:03:53;;;;;;;45.60;18.10;;;;;;;-1.58;78.84;101839.20;107294;1257;99746;-65
2024/01/20 05:06:21;;;;;;;36.70;18.50;;;;;;;-1.59;78.73;101838.52;107288;1256;112778;-65
2024/01/20 05:08:50;;;;;;;38.60;17.10;;;;;;;-1.60;79.01;101839.25;107314;1256;108728;-65
2024/01/20 05:11:19;;;;;;;40.00;17.10;;;;;;;-1.62;79.01;101844.23;107266;1257;108272;-65
2024/01/20 05:13:47;;;;;;;39.30;18.00;;;;;;;-1.62;79.11;101849.86;107277;1259;99244;-66
2024/01/20 05:16:16;;;;;;;36.50;16.00;;;;;;;-1.63;79.00;101856.19;107294;1259;99839;-65
2024/01/20 05:18:44;;;;;;;49.70;19.30;;;;;;;-1.64;79.23;101856.55;107336;1256;112942;-65
2024/01/20 05:21:14;;;;;;;38.10;17.00;;;;;;;-1.63;79.28;101865.17;107341;1257;108735;-65
2024/01/20 05:23:42;;;;;;;36.60;16.10;;;;;;;-1.63;79.48;101863.93;107305;1256;108584;-65
2024/01/20 05:26:10;;;;;;;43.60;18.40;;;;;;;-1.64;79.43;101858.34;107312;1257;99579;-66
2024/01/20 05:28:38;;;;;;;34.90;15.80;;;;;;;-1.64;79.50;101855.35;107385;1257;99074;-65
2024/01/20 05:31:07;;;;;;;29.30;14.70;;;;;;;-1.62;79.72;101851.27;107341;1257;113537;-66
2024/01/20 05:33:35;;;;;;;35.50;16.80;;;;;;;-1.63;79.49;101854.77;107256;1256;109072;-65
2024/01/20 05:36:05;;;;;;;36.10;16.30;;;;;;;-1.63;79.52;101861.64;107253;1256;108445;-65
2024/01/20 05:38:34;;;;;;;27.80;14.60;;;;;;;-1.65;79.64;101864.31;107295;1256;99181;-64
2024/01/20 05:41:04;;;;;;;35.70;16.30;;;;;;;-1.63;79.78;101868.52;107292;1256;99729;-65
2024/01/20 05:43:32;;;;;;;29.80;13.50;;;;;;;-1.62;79.67;101872.70;107284;1256;112875;-64
2024/01/20 05:46:05;;;;;;;37.60;14.50;;;;;;;-1.60;79.90;101879.36;107329;1257;107571;-64
2024/01/20 05:48:36;;;;;;;28.90;14.90;;;;;;;-1.56;80.04;101891.59;107284;1258;108410;-64
2024/01/20 05:51:05;;;;;;;34.40;15.60;;;;;;;-1.50;80.11;101909.42;107238;1257;99182;-65
2024/01/20 05:53:33;;;;;;;31.40;13.90;;;;;;;-1.46;79.71;101920.79;107299;1256;99075;-64
2024/01/20 05:56:02;;;;;;;37.50;14.70;;;;;;;-1.42;79.63;101922.11;107312;1259;113499;-66
2024/01/20 05:58:31;;;;;;;29.80;13.50;;;;;;;-1.41;79.43;101926.66;107040;1256;108482;-65
2024/01/20 06:00:59;;;;;;;33.10;15.00;;;;;;;-1.38;79.14;101933.82;107221;1256;109253;-65
2024/01/20 06:03:28;;;;;;;30.80;14.00;;;;;;;-1.36;79.19;101936.27;107278;1256;99190;-65
2024/01/20 06:05:56;;;;;;;28.30;12.20;;;;;;;-1.33;79.39;101946.75;107336;1256;99202;-66
2024/01/20 06:08:25;;;;;;;26.70;14.40;;;;;;;-1.30;79.55;101958.29;107188;1256;113096;-64
2024/01/20 06:10:53;;;;;;;30.50;13.60;;;;;;;-1.25;79.31;101971.58;107184;1256;107919;-66
2024/01/20 06:13:22;;;;;;;26.20;12.50;;;;;;;-1.20;79.31;101973.23;107185;1256;108153;-65
2024/01/20 06:15:50;;;;;;;26.50;12.60;;;;;;;-1.17;78.94;101975.13;107243;1256;99268;-67
2024/01/20 06:18:18;;;;;;;28.50;12.40;;;;;;;-1.15;78.93;101976.31;107240;1257;99389;-64
2024/01/20 06:20:47;;;;;;;28.00;13.30;;;;;;;-1.15;78.53;101979.47;107285;1256;112916;-65
2024/01/20 06:23:15;;;;;;;26.00;12.20;;;;;;;-1.14;78.45;101988.42;107094;1256;108330;-65
2024/01/20 06:25:43;;;;;;;26.80;12.80;;;;;;;-1.11;78.38;101988.93;107184;1256;108048;-65
2024/01/20 06:28:12;;;;;;;26.90;12.10;;;;;;;-1.09;78.19;101996.27;107252;1257;99288;-66
2024/01/20 06:30:40;;;;;;;25.30;11.40;;;;;;;-1.09;77.90;101999.96;107292;1259;99716;-66
2024/01/20 06:33:08;;;;;;;28.70;12.00;;;;;;;-1.09;77.63;102004.00;107282;1257;112624;-65
2024/01/20 06:35:37;;;;;;;22.50;11.90;;;;;;;-1.08;77.44;102004.88;107297;1256;108217;-64
2024/01/20 06:38:06;;;;;;;25.40;11.30;;;;;;;-1.09;77.20;102007.01;107308;1256;108649;-65
2024/01/20 06:40:34;;;;;;;28.60;12.70;;;;;;;-1.12;77.15;102012.34;107318;1256;99207;-65
2024/01/20 06:43:03;;;;;;;25.10;12.30;;;;;;;-1.13;76.83;102013.61;107314;1257;99774;-66
2024/01/20 06:45:33;;;;;;;20.20;10.00;;;;;;;-1.15;76.48;102021.02;107290;1257;113230;-65
2024/01/20 06:48:04;;;;;;;21.10;9.20;;;;;;;-1.17;75.87;102030.76;107310;1255;107599;-65
2024/01/20 06:50:37;;;;;;;28.60;11.00;;;;;;;-1.18;76.02;102041.70;107298;1256;107758;-65
2024/01/20 06:53:06;;;;;;;22.90;10.60;;;;;;;-1.19;76.00;102052.61;107251;1257;99193;-66
2024/01/20 06:55:34;;;;;;;25.30;11.50;;;;;;;-1.17;76.23;102054.88;107315;1257;99065;-65
2024/01/20 06:58:03;;;;;;;26.80;12.30;;;;;;;-1.17;75.87;102058.73;107290;1259;115189;-65
2024/01/20 07:00:32;;;;;;;30.10;14.40;;;;;;;-1.16;75.74;102077.39;107118;1256;107897;-66
2024/01/20 07:03:02;;;;;;;30.00;13.90;;;;;;;-1.17;75.50;102080.04;107257;1256;108194;-66
2024/01/20 07:05:31;;;;;;;39.20;17.20;;;;;;;-1.17;75.76;102076.70;107313;1257;99419;-66
2024/01/20 07:07:59;;;;;;;38.20;18.50;;;;;;;-1.20;75.53;102082.59;107299;1256;99096;-66
2024/01/20 07:10:27;;;;;;;40.10;18.80;;;;;;;-1.20;75.89;102084.88;107306;1257;112287;-66
2024/01/20 07:12:56;;;;;;;42.80;18.20;;;;;;;-1.21;75.74;102090.17;107268;1256;108683;-66
2024/01/20 07:15:24;;;;;;;47.70;21.60;;;;;;;-1.22;75.95;102093.88;107254;1255;108263;-64
2024/01/20 07:17:56;;;;;;;43.40;20.00;;;;;;;-1.20;75.76;102093.48;107277;1256;99365;-64
2024/01/20 07:20:25;;;;;;;37.50;19.60;;;;;;;-1.14;76.25;102092.15;107285;1259;99185;-65
2024/01/20 07:22:53;;;;;;;39.10;18.90;;;;;;;-1.07;76.33;102099.05;107302;1257;112494;-64
2024/01/20 07:25:21;;;;;;;40.50;18.60;;;;;;;-1.09;75.81;102099.80;107269;1259;107927;-65
2024/01/20 07:27:50;;;;;;;43.80;18.60;;;;;;;-1.13;75.52;102100.21;107226;1257;107282;-64
2024/01/20 07:30:18;;;;;;;41.80;19.50;;;;;;;-1.12;75.40;102113.23;107266;1255;99207;-65
2024/01/20 07:32:46;;;;;;;40.80;19.10;;;;;;;-1.09;75.71;102120.40;107287;1257;99855;-65
2024/01/20 07:35:15;;;;;;;35.80;16.80;;;;;;;-1.06;75.60;102132.48;107297;1257;113853;-65
2024/01/20 07:37:43;;;;;;;39.20;18.00;;;;;;;-1.00;75.39;102136.43;107273;1256;109050;-65
2024/01/20 07:40:12;;;;;;;36.70;18.10;;;;;;;-1.01;74.68;102136.80;107305;1257;108267;-65
2024/01/20 07:42:42;;;;;;;39.70;18.40;;;;;;;-1.01;74.76;102130.46;107288;1255;99184;-65
2024/01/20 07:45:11;;;;;;;36.70;17.70;;;;;;;-0.98;74.52;102134.80;107271;1256;99730;-66
2024/01/20 07:47:39;;;;;;;38.90;17.90;;;;;;;-1.00;74.04;102133.08;107213;1256;112829;-66
2024/01/20 07:50:08;;;;;;;41.60;17.40;;;;;;;-1.07;73.48;102136.20;107231;1257;107984;-66
2024/01/20 07:52:38;;;;;;;40.40;18.00;;;;;;;-1.13;73.46;102140.54;107239;1257;107624;-65
2024/01/20 07:55:08;;;;;;;42.20;18.70;;;;;;;-1.16;73.62;102136.38;107059;1256;99282;-66
2024/01/20 07:57:36;;;;;;;33.40;17.50;;;;;;;-1.14;74.05;102136.17;107209;1257;99182;-65
2024/01/20 08:00:06;;;;;;;36.50;18.20;;;;;;;-1.16;73.41;102145.52;107284;1259;112629;-65
2024/01/20 08:02:35;;;;;;;37.80;18.90;;;;;;;-1.22;73.09;102148.96;107297;1257;107334;-65
2024/01/20 08:05:04;;;;;;;36.20;17.50;;;;;;;-1.23;72.92;102148.29;107258;1257;108365;-64
2024/01/20 08:07:33;;;;;;;37.90;18.10;;;;;;;-1.27;72.66;102150.64;107095;1257;99348;-65
2024/01/20 08:10:01;;;;;;;40.00;19.20;;;;;;;-1.29;72.61;102152.42;107283;1256;99816;-66
2024/01/20 08:12:30;;;;;;;36.20;17.70;;;;;;;-1.31;72.68;102151.23;107207;1256;113676;-65
2024/01/20 08:14:59;;;;;;;43.10;18.00;;;;;;;-1.29;72.43;102149.95;107225;1257;108361;-65
2024/01/20 08:17:27;;;;;;;32.20;16.20;;;;;;;-1.25;72.63;102159.92;107265;1257;107881;-65
2024/01/20 08:19:56;;;;;;;41.40;20.50;;;;;;;-1.21;72.79;102166.38;107261;1257;99206;-66
2024/01/20 08:22:24;;;;;;;33.20;17.10;;;;;;;-1.16;72.73;102170.87;107336;1257;99192;-64
2024/01/20 08:24:53;;;;;;;41.20;18.00;;;;;;;-1.09;72.37;102172.19;107246;1255;113438;-64
2024/01/20 08:27:21;;;;;;;42.10;17.00;;;;;;;-1.00;72.76;102180.63;107309;1257;107412;-64
2024/01/20 08:29:49;;;;;;;39.60;18.70;;;;;;;-0.93;72.09;102182.80;107254;1257;108157;-64
2024/01/20 08:32:17;;;;;;;40.70;17.20;;;;;;;-0.93;71.58;102187.56;107281;1255;99196;-64
2024/01/20 08:34:46;;;;;;;37.00;18.50;;;;;;;-0.87;71.89;102191.50;107335;1256;99208;-65
2024/01/20 08:37:14;;;;;;;41.60;18.40;;;;;;;-0.80;71.94;102197.02;107263;1257;112586;-65
2024/01/20 08:39:42;;;;;;;40.20;18.20;;;;;;;-0.79;71.34;102192.77;107230;1256;108456;-66
2024/01/20 08:42:10;;;;;;;46.90;19.00;;;;;;;-0.75;71.58;102190.95;107090;1256;107871;-66
2024/01/20 08:44:39;;;;;;;38.40;18.60;;;;;;;-0.73;71.04;102200.59;106582;1256;797348;-66
2024/01/20 08:47:07;;;;;;;43.90;18.00;;;;;;;-0.76;70.85;102200.65;107266;1260;99104;-66
2024/01/20 08:49:35;;;;;;;40.30;19.10;;;;;;;-0.79;70.44;102198.05;107200;1256;112838;-66
2024/01/20 08:52:04;;;;;;;36.20;17.70;;;;;;;-0.76;71.01;102198.18;107194;1256;108193;-64
2024/01/20 08:54:33;;;;;;;43.10;18.00;;;;;;;-0.72;70.97;102197.05;107214;1256;108812;-65
2024/01/20 08:57:01;;;;;;;37.10;18.70;;;;;;;-0.72;70.80;102200.23;107190;1256;99202;-64
2024/01/20 08:59:30;;;;;;;41.50;18.50;;;;;;;-0.75;70.45;102205.04;107271;1255;99819;-64
2024/01/20 09:01:58;;;;;;;48.50;19.70;;;;;;;-0.81;70.45;102203.73;107289;1259;112101;-65
2024/01/20 09:04:27;;;;;;;41.10;18.90;;;;;;;-0.83;70.77;102202.35;107289;1256;107134;-65
2024/01/20 09:06:55;;;;;;;38.50;19.30;;;;;;;-0.87;70.37;102202.95;107244;1257;106984;-63
2024/01/20 09:09:24;;;;;;;41.50;20.00;;;;;;;-0.87;70.64;102203.13;107253;1257;99187;-65
2024/01/20 09:11:52;;;;;;;49.80;21.80;;;;;;;-0.82;70.86;102201.47;107252;1257;99180;-65
2024/01/20 09:14:21;;;;;;;43.70;19.70;;;;;;;-0.78;71.06;102201.39;107248;1256;113198;-65
2024/01/20 09:16:49;;;;;;;39.80;20.40;;;;;;;-0.70;70.79;102205.29;107182;1256;108538;-66
2024/01/20 09:19:17;;;;;;;39.90;17.40;;;;;;;-0.67;70.55;102202.42;107220;1256;107701;-66
2024/01/20 09:21:46;;;;;;;36.40;19.60;;;;;;;-0.63;70.21;102206.58;107218;1257;99244;-65
2024/01/20 09:24:15;;;;;;;44.30;17.80;;;;;;;-0.57;70.03;102204.71;107197;1256;101157;-64
2024/01/20 09:26:43;;;;;;;43.50;19.50;;;;;;;-0.51;69.87;102208.83;107212;1256;113222;-66
2024/01/20 09:29:12;;;;;;;49.00;20.20;;;;;;;-0.49;68.94;102208.95;107261;1259;108288;-65
2024/01/20 09:31:40;;;;;;;36.00;16.70;;;;;;;-0.46;68.54;102208.91;107249;1256;108178;-65
2024/01/20 09:34:10;;;;;;;37.70;16.30;;;;;;;-0.39;68.83;102211.75;107248;1256;99279;-66
2024/01/20 09:36:39;;;;;;;32.90;16.50;;;;;;;-0.25;68.60;102208.15;107248;1256;99744;-66
2024/01/20 09:39:11;;;;;;;39.70;18.70;;;;;;;-0.19;67.54;102206.23;107274;1259;112804;-66
2024/01/20 09:41:41;;;;;;;37.90;17.80;;;;;;;-0.20;66.56;102212.26;107252;1257;108560;-66
2024/01/20 09:44:12;;;;;;;36.40;15.00;;;;;;;-0.28;65.27;102212.95;107267;1257;108383;-64
2024/01/20 09:46:40;;;;;;;29.10;13.10;;;;;;;-0.33;64.92;102217.98;107234;1257;99195;-63
2024/01/20 09:49:09;;;;;;;36.80;14.20;;;;;;;-0.38;64.78;102218.06;107257;1256;99304;-64
2024/01/20 09:51:54;;;;;;;34.90;14.80;;;;;;;-0.33;65.02;102216.95;107249;1259;114307;-64
2024/01/20 09:54:24;;;;;;;32.30;14.60;;;;;;;-0.25;65.42;102215.02;107283;1256;108639;-63
2024/01/20 09:56:53;;;;;;;25.30;12.50;;;;;;;-0.21;65.42;102217.23;107256;1257;109055;-64
2024/01/20 09:59:22;;;;;;;31.90;13.80;;;;;;;-0.15;64.85;102213.75;107240;1257;99276;-65
2024/01/20 10:01:52;;;;;;;28.70;13.90;;;;;;;-0.14;64.15;102209.14;107287;1255;99749;-65
2024/01/20 10:04:23;;;;;;;26.40;14.00;;;;;;;-0.17;63.40;102207.42;107298;1257;110678;-65
2024/01/20 10:06:54;;;;;;;30.70;14.40;;;;;;;-0.14;63.34;102208.27;107293;1257;108947;-63
2024/01/20 10:09:22;;;;;;;31.20;14.30;;;;;;;-0.08;62.61;102207.80;107230;1257;108749;-63
2024/01/20 10:11:51;;;;;;;25.90;12.70;;;;;;;-0.10;61.96;102210.30;107219;1257;99108;-64
2024/01/20 10:14:19;;;;;;;27.60;14.20;;;;;;;-0.08;62.18;102216.09;107279;1257;99085;-64
2024/01/20 10:16:49;;;;;;;28.50;13.80;;;;;;;0.01;62.81;102212.72;107263;1257;113677;-65
2024/01/20 10:19:17;;;;;;;32.60;14.30;;;;;;;0.08;62.92;102217.52;107258;1257;108405;-66
2024/01/20 10:21:46;;;;;;;36.40;16.40;;;;;;;0.13;62.54;102215.98;107249;1256;107540;-64
2024/01/20 10:24:21;;;;;;;30.00;14.00;;;;;;;0.06;61.25;102217.38;107051;1256;99389;-65
2024/01/20 10:26:52;;;;;;;30.60;15.10;;;;;;;-0.01;61.05;102217.88;107256;1257;99279;-67
2024/01/20 10:29:20;;;;;;;31.60;14.60;;;;;;;-0.01;61.83;102216.64;107270;1257;113531;-64
2024/01/20 10:31:48;;;;;;;26.60;14.10;;;;;;;0.04;61.78;102218.84;107255;1257;107989;-65
2024/01/20 10:34:19;;;;;;;33.50;15.00;;;;;;;-0.00;61.60;102215.39;107236;1255;108563;-65
2024/01/20 10:36:53;;;;;;;39.00;16.10;;;;;;;-0.06;61.75;102218.67;107272;1257;99242;-66
2024/01/20 10:39:21;;;;;;;;;;;;;;;-0.07;61.88;102223.10;107248;1255;99077;-65
2024/01/20 10:41:53;;;;;;;34.30;16.10;;;;;;;-0.08;61.67;102219.77;107287;1257;112811;-66
2024/01/20 10:44:28;;;;;;;30.30;12.30;;;;;;;-0.07;61.04;102219.05;107261;1259;108385;-67
2024/01/20 10:47:04;;;;;;;32.40;13.50;;;;;;;-0.05;60.23;102220.95;107302;1256;107202;-67
2024/01/20 10:49:36;;;;;;;30.10;15.40;;;;;;;0.05;60.78;102215.46;107280;1256;99302;-66
2024/01/20 10:52:05;;;;;;;28.60;13.80;;;;;;;0.10;59.43;102215.17;107257;1256;99244;-64
2024/01/20 10:54:36;;;;;;;35.20;14.20;;;;;;;0.12;59.23;102213.71;107312;1256;112248;-65
2024/01/20 10:57:04;;;;;;;31.40;13.90;;;;;;;0.18;59.79;102212.17;107289;1257;109083;-66
2024/01/20 10:59:39;;;;;;;25.10;12.70;;;;;;;0.25;59.22;102216.27;107280;1256;106321;-67
2024/01/20 11:02:11;;;;;;;29.10;13.90;;;;;;;0.24;58.82;102214.35;107026;1256;99244;-67
2024/01/20 11:04:43;;;;;;;30.50;13.40;;;;;;;0.26;59.60;102213.42;107297;1259;99253;-64